Unser Platzwetter:
(um das Bild zu aktualisieren oder bei unvollständig geladenem Bild den Reload-Button des Browsers drücken)

 

 
[Quelle: ADDS]
METAR
ETNN 210520Z 00000KT 9999 M09/M11 Q1022 BLU+BLU+ =
ETNN 210510Z 2106/2115 VRB03KT 9999 NSW SKC PROB30 2106/2109 VRB01KT 4000 BR SKC BY ETGL
TAF
ETNN 210510Z 2106/2115 VRB03KT 9999 NSW SKC PROB30 2106/2109 VRB01KT 4000 BR SKC BY ETGL =
SR / SS: 07:23 / 16:05 UTC (Vettweiss-Soller 2019-01-21)
 

Hier gibt es ein Wetterdiagramm der letzten 7 Tage.

Hier geht es zu unserer Webcam.

Satelitenbild:

aktuelles Meteosat-Bild von www.wetterzentrale.de